sensor_id;sensor_type;location;lat;lon;timestamp;temperature;humidity
49042;DHT22;34859;51.608;11.462;2023-03-14T06:14:48;10.40;99.90
49042;DHT22;34859;51.608;11.462;2023-03-14T06:17:14;10.30;99.90
49042;DHT22;34859;51.608;11.462;2023-03-14T06:19:39;10.30;99.90
49042;DHT22;34859;51.608;11.462;2023-03-14T06:22:05;10.30;99.90
49042;DHT22;34859;51.608;11.462;2023-03-14T06:24:30;10.30;99.90
49042;DHT22;34859;51.608;11.462;2023-03-14T06:26:57;10.30;99.90
49042;DHT22;34859;51.608;11.462;2023-03-14T06:29:23;10.30;99.90
49042;DHT22;34859;51.608;11.462;2023-03-14T06:31:49;10.20;99.90
49042;DHT22;34859;51.608;11.462;2023-03-14T06:34:15;10.30;99.90
49042;DHT22;34859;51.608;11.462;2023-03-14T06:36:40;10.30;99.90
49042;DHT22;34859;51.608;11.462;2023-03-14T06:39:06;10.30;99.90
49042;DHT22;34859;51.608;11.462;2023-03-14T06:41:32;10.40;99.90
49042;DHT22;34859;51.608;11.462;2023-03-14T06:43:58;10.40;99.90
49042;DHT22;34859;51.608;11.462;2023-03-14T06:46:23;10.30;99.90
49042;DHT22;34859;51.608;11.462;2023-03-14T06:48:49;10.40;99.90
49042;DHT22;34859;51.608;11.462;2023-03-14T06:51:35;10.40;99.90
49042;DHT22;34859;51.608;11.462;2023-03-14T06:54:09;10.40;99.90
49042;DHT22;34859;51.608;11.462;2023-03-14T06:56:35;10.40;99.90
49042;DHT22;34859;51.608;11.462;2023-03-14T06:59:00;10.50;99.90
49042;DHT22;34859;51.608;11.462;2023-03-14T07:01:28;10.50;99.90
49042;DHT22;34859;51.608;11.462;2023-03-14T07:03:55;10.50;99.90
49042;DHT22;34859;51.608;11.462;2023-03-14T07:06:21;10.40;99.90
49042;DHT22;34859;51.608;11.462;2023-03-14T07:08:47;10.50;99.90
49042;DHT22;34859;51.608;11.462;2023-03-14T07:11:12;10.50;99.90
49042;DHT22;34859;51.608;11.462;2023-03-14T07:13:40;10.60;99.90
49042;DHT22;34859;51.608;11.462;2023-03-14T07:16:07;10.60;99.90
49042;DHT22;34859;51.608;11.462;2023-03-14T07:18:33;10.70;99.90
49042;DHT22;34859;51.608;11.462;2023-03-14T07:20:59;10.80;99.90
49042;DHT22;34859;51.608;11.462;2023-03-14T07:23:24;10.80;99.90
49042;DHT22;34859;51.608;11.462;2023-03-14T07:25:50;10.90;99.90
49042;DHT22;34859;51.608;11.462;2023-03-14T07:28:17;11.00;99.90
49042;DHT22;34859;51.608;11.462;2023-03-14T07:30:42;11.00;99.90
49042;DHT22;34859;51.608;11.462;2023-03-14T07:33:08;11.00;99.90
49042;DHT22;34859;51.608;11.462;2023-03-14T07:35:33;11.00;99.90
49042;DHT22;34859;51.608;11.462;2023-03-14T07:38:00;10.90;99.90
49042;DHT22;34859;51.608;11.462;2023-03-14T07:40:28;11.00;99.90
49042;DHT22;34859;51.608;11.462;2023-03-14T07:43:03;10.90;99.90
49042;DHT22;34859;51.608;11.462;2023-03-14T07:45:29;10.90;99.90
49042;DHT22;34859;51.608;11.462;2023-03-14T07:47:54;11.00;99.90
49042;DHT22;34859;51.608;11.462;2023-03-14T07:50:25;10.90;99.90
49042;DHT22;34859;51.608;11.462;2023-03-14T07:52:51;10.90;99.90
49042;DHT22;34859;51.608;11.462;2023-03-14T07:55:17;10.90;99.90
49042;DHT22;34859;51.608;11.462;2023-03-14T07:57:43;11.00;99.90
49042;DHT22;34859;51.608;11.462;2023-03-14T08:00:08;11.30;99.90
49042;DHT22;34859;51.608;11.462;2023-03-14T08:02:36;11.50;99.90
49042;DHT22;34859;51.608;11.462;2023-03-14T08:05:03;11.60;99.90
49042;DHT22;34859;51.608;11.462;2023-03-14T08:07:29;11.70;99.90
49042;DHT22;34859;51.608;11.462;2023-03-14T08:09:54;11.60;99.90
49042;DHT22;34859;51.608;11.462;2023-03-14T08:12:20;11.50;99.90
49042;DHT22;34859;51.608;11.462;2023-03-14T08:14:46;11.40;99.90
49042;DHT22;34859;51.608;11.462;2023-03-14T08:17:12;11.40;99.90
49042;DHT22;34859;51.608;11.462;2023-03-14T08:19:38;11.40;99.90
49042;DHT22;34859;51.608;11.462;2023-03-14T08:22:04;11.40;99.90
49042;DHT22;34859;51.608;11.462;2023-03-14T08:24:30;11.40;99.90
49042;DHT22;34859;51.608;11.462;2023-03-14T08:26:56;11.40;99.90
49042;DHT22;34859;51.608;11.462;2023-03-14T08:29:22;11.50;99.90
49042;DHT22;34859;51.608;11.462;2023-03-14T08:31:53;11.60;99.90
49042;DHT22;34859;51.608;11.462;2023-03-14T08:34:20;11.70;99.90
49042;DHT22;34859;51.608;11.462;2023-03-14T08:36:46;11.80;99.90
49042;DHT22;34859;51.608;11.462;2023-03-14T08:39:12;11.90;99.90
49042;DHT22;34859;51.608;11.462;2023-03-14T08:41:38;12.00;99.90
49042;DHT22;34859;51.608;11.462;2023-03-14T08:44:07;12.10;99.90
49042;DHT22;34859;51.608;11.462;2023-03-14T08:46:33;12.10;99.90
49042;DHT22;34859;51.608;11.462;2023-03-14T08:48:58;12.20;99.90
49042;DHT22;34859;51.608;11.462;2023-03-14T08:51:24;12.30;99.90
49042;DHT22;34859;51.608;11.462;2023-03-14T08:53:50;12.30;99.90
49042;DHT22;34859;51.608;11.462;2023-03-14T08:56:16;12.30;99.90
49042;DHT22;34859;51.608;11.462;2023-03-14T08:58:42;12.30;99.90
49042;DHT22;34859;51.608;11.462;2023-03-14T09:01:09;12.30;99.90
49042;DHT22;34859;51.608;11.462;2023-03-14T09:03:34;12.40;99.90
49042;DHT22;34859;51.608;11.462;2023-03-14T09:06:04;12.60;99.90
49042;DHT22;34859;51.608;11.462;2023-03-14T09:08:30;12.70;99.90
49042;DHT22;34859;51.608;11.462;2023-03-14T09:10:56;12.70;99.90
49042;DHT22;34859;51.608;11.462;2023-03-14T09:13:22;12.60;99.90
49042;DHT22;34859;51.608;11.462;2023-03-14T09:15:52;12.50;99.90
49042;DHT22;34859;51.608;11.462;2023-03-14T09:18:17;12.30;99.90
49042;DHT22;34859;51.608;11.462;2023-03-14T09:20:43;12.30;99.90
49042;DHT22;34859;51.608;11.462;2023-03-14T09:23:09;12.30;99.90
49042;DHT22;34859;51.608;11.462;2023-03-14T09:25:34;12.30;99.90
49042;DHT22;34859;51.608;11.462;2023-03-14T09:28:00;12.50;99.90
49042;DHT22;34859;51.608;11.462;2023-03-14T09:30:29;12.50;99.90
49042;DHT22;34859;51.608;11.462;2023-03-14T09:32:55;12.50;99.90
49042;DHT22;34859;51.608;11.462;2023-03-14T09:35:20;12.50;99.90
49042;DHT22;34859;51.608;11.462;2023-03-14T09:37:46;12.50;99.90
49042;DHT22;34859;51.608;11.462;2023-03-14T09:40:12;12.50;99.90
49042;DHT22;34859;51.608;11.462;2023-03-14T09:42:39;12.50;99.90
49042;DHT22;34859;51.608;11.462;2023-03-14T09:45:44;12.40;99.90
49042;DHT22;34859;51.608;11.462;2023-03-14T09:48:05;12.30;99.90
49042;DHT22;34859;51.608;11.462;2023-03-14T09:50:39;12.20;99.90
49042;DHT22;34859;51.608;11.462;2023-03-14T09:53:09;12.30;99.90
49042;DHT22;34859;51.608;11.462;2023-03-14T09:55:37;12.20;99.90
49042;DHT22;34859;51.608;11.462;2023-03-14T09:58:05;12.20;99.90
49042;DHT22;34859;51.608;11.462;2023-03-14T10:00:34;12.20;99.90
49042;DHT22;34859;51.608;11.462;2023-03-14T10:03:14;12.20;99.90
49042;DHT22;34859;51.608;11.462;2023-03-14T10:05:45;12.10;99.90
49042;DHT22;34859;51.608;11.462;2023-03-14T10:08:11;11.90;99.90
49042;DHT22;34859;51.608;11.462;2023-03-14T10:10:37;11.90;99.90
49042;DHT22;34859;51.608;11.462;2023-03-14T10:13:25;11.90;99.90
49042;DHT22;34859;51.608;11.462;2023-03-14T10:15:54;12.00;99.90
49042;DHT22;34859;51.608;11.462;2023-03-14T10:18:20;12.20;99.90
49042;DHT22;34859;51.608;11.462;2023-03-14T10:20:47;12.30;99.90
49042;DHT22;34859;51.608;11.462;2023-03-14T10:25:41;12.70;99.90
49042;DHT22;34859;51.608;11.462;2023-03-14T10:30:48;13.10;99.90
49042;DHT22;34859;51.608;11.462;2023-03-14T10:35:42;13.10;99.90
49042;DHT22;34859;51.608;11.462;2023-03-14T10:38:11;13.20;99.90
49042;DHT22;34859;51.608;11.462;2023-03-14T10:40:38;13.20;99.90
49042;DHT22;34859;51.608;11.462;2023-03-14T10:43:05;13.10;99.90
49042;DHT22;34859;51.608;11.462;2023-03-14T10:45:32;13.00;99.90
49042;DHT22;34859;51.608;11.462;2023-03-14T10:50:49;13.10;99.90
49042;DHT22;34859;51.608;11.462;2023-03-14T10:53:18;13.30;99.90
49042;DHT22;34859;51.608;11.462;2023-03-14T10:55:44;13.60;99.90
49042;DHT22;34859;51.608;11.462;2023-03-14T10:58:20;13.80;99.90
49042;DHT22;34859;51.608;11.462;2023-03-14T11:00:48;13.70;99.90
49042;DHT22;34859;51.608;11.462;2023-03-14T11:03:17;13.60;99.90
49042;DHT22;34859;51.608;11.462;2023-03-14T11:05:57;14.00;99.90
49042;DHT22;34859;51.608;11.462;2023-03-14T11:08:48;14.00;99.90
49042;DHT22;34859;51.608;11.462;2023-03-14T11:11:16;13.90;99.90
49042;DHT22;34859;51.608;11.462;2023-03-14T11:13:47;13.70;99.90
49042;DHT22;34859;51.608;11.462;2023-03-14T11:16:33;13.60;99.90
49042;DHT22;34859;51.608;11.462;2023-03-14T11:21:39;13.40;99.90
49042;DHT22;34859;51.608;11.462;2023-03-14T11:26:56;13.20;99.90
49042;DHT22;34859;51.608;11.462;2023-03-14T11:32:20;13.20;99.90
49042;DHT22;34859;51.608;11.462;2023-03-14T11:37:14;12.80;99.90
49042;DHT22;34859;51.608;11.462;2023-03-14T11:39:44;12.80;99.90
49042;DHT22;34859;51.608;11.462;2023-03-14T11:42:11;12.60;99.90
49042;DHT22;34859;51.608;11.462;2023-03-14T11:44:38;12.70;99.90
49042;DHT22;34859;51.608;11.462;2023-03-14T11:47:06;12.60;99.90
49042;DHT22;34859;51.608;11.462;2023-03-14T11:49:38;12.60;99.90
49042;DHT22;34859;51.608;11.462;2023-03-14T11:52:10;12.50;99.90
49042;DHT22;34859;51.608;11.462;2023-03-14T11:57:05;12.70;99.90
49042;DHT22;34859;51.608;11.462;2023-03-14T11:59:41;12.60;99.90
49042;DHT22;34859;51.608;11.462;2023-03-14T12:02:21;12.60;99.90
49042;DHT22;34859;51.608;11.462;2023-03-14T12:07:19;12.50;99.90
49042;DHT22;34859;51.608;11.462;2023-03-14T12:09:50;12.60;99.90
49042;DHT22;34859;51.608;11.462;2023-03-14T12:12:19;12.60;99.90
49042;DHT22;34859;51.608;11.462;2023-03-14T12:15:00;12.40;99.90
49042;DHT22;34859;51.608;11.462;2023-03-14T12:17:40;12.50;99.90
49042;DHT22;34859;51.608;11.462;2023-03-14T12:22:44;12.50;99.90
49042;DHT22;34859;51.608;11.462;2023-03-14T12:27:47;12.60;99.90
49042;DHT22;34859;51.608;11.462;2023-03-14T12:30:18;12.60;99.90
49042;DHT22;34859;51.608;11.462;2023-03-14T12:35:43;13.00;99.90
49042;DHT22;34859;51.608;11.462;2023-03-14T12:38:15;13.30;99.90
49042;DHT22;34859;51.608;11.462;2023-03-14T12:43:33;13.90;99.90
49042;DHT22;34859;51.608;11.462;2023-03-14T12:46:19;14.10;99.90
49042;DHT22;34859;51.608;11.462;2023-03-14T12:51:13;14.10;99.90
49042;DHT22;34859;51.608;11.462;2023-03-14T13:01:34;14.80;99.90
49042;DHT22;34859;51.608;11.462;2023-03-14T13:04:09;14.90;99.90
49042;DHT22;34859;51.608;11.462;2023-03-14T13:06:53;15.00;99.90
49042;DHT22;34859;51.608;11.462;2023-03-14T13:14:49;15.00;99.90
49042;DHT22;34859;51.608;11.462;2023-03-14T13:17:25;15.00;99.90
49042;DHT22;34859;51.608;11.462;2023-03-14T13:19:55;14.90;99.90
49042;DHT22;34859;51.608;11.462;2023-03-14T13:22:24;15.00;99.90
49042;DHT22;34859;51.608;11.462;2023-03-14T13:24:58;15.10;99.90
49042;DHT22;34859;51.608;11.462;2023-03-14T13:27:23;14.90;99.90
49042;DHT22;34859;51.608;11.462;2023-03-14T13:29:50;14.90;99.90
49042;DHT22;34859;51.608;11.462;2023-03-14T13:32:39;14.80;99.90
49042;DHT22;34859;51.608;11.462;2023-03-14T13:35:27;14.80;99.90
49042;DHT22;34859;51.608;11.462;2023-03-14T13:38:15;14.90;99.90
49042;DHT22;34859;51.608;11.462;2023-03-14T13:41:05;15.00;99.90
49042;DHT22;34859;51.608;11.462;2023-03-14T13:43:32;14.90;99.90
49042;DHT22;34859;51.608;11.462;2023-03-14T13:46:03;14.80;99.90
49042;DHT22;34859;51.608;11.462;2023-03-14T13:48:30;14.70;99.90
49042;DHT22;34859;51.608;11.462;2023-03-14T13:53:25;14.30;99.90
49042;DHT22;34859;51.608;11.462;2023-03-14T13:55:51;14.10;99.90
49042;DHT22;34859;51.608;11.462;2023-03-14T13:58:27;13.80;99.90
49042;DHT22;34859;51.608;11.462;2023-03-14T14:03:25;12.90;99.90
49042;DHT22;34859;51.608;11.462;2023-03-14T14:05:50;12.50;99.90
49042;DHT22;34859;51.608;11.462;2023-03-14T14:08:18;12.30;99.90
49042;DHT22;34859;51.608;11.462;2023-03-14T14:10:43;11.00;99.90
49042;DHT22;34859;51.608;11.462;2023-03-14T14:13:13;9.60;99.90
49042;DHT22;34859;51.608;11.462;2023-03-14T14:15:44;8.50;99.90
49042;DHT22;34859;51.608;11.462;2023-03-14T14:18:12;7.80;99.90
49042;DHT22;34859;51.608;11.462;2023-03-14T16:54:53;4.10;99.90
49042;DHT22;34859;51.608;11.462;2023-03-14T17:15:45;4.20;99.90
49042;DHT22;34859;51.608;11.462;2023-03-14T17:35:41;4.30;99.90
49042;DHT22;34859;51.608;11.462;2023-03-14T17:39:22;4.30;99.90
49042;DHT22;34859;51.608;11.462;2023-03-14T17:46:31;4.40;99.90
49042;DHT22;34859;51.608;11.462;2023-03-14T17:50:04;4.40;99.90
49042;DHT22;34859;51.608;11.462;2023-03-14T17:53:19;4.40;99.90
49042;DHT22;34859;51.608;11.462;2023-03-14T17:56:31;4.40;99.90
49042;DHT22;34859;51.608;11.462;2023-03-14T17:59:33;4.50;99.90
49042;DHT22;34859;51.608;11.462;2023-03-14T18:02:48;4.40;99.90
49042;DHT22;34859;51.608;11.462;2023-03-14T18:09:08;4.40;99.90
49042;DHT22;34859;51.608;11.462;2023-03-14T18:12:39;4.40;99.90
49042;DHT22;34859;51.608;11.462;2023-03-14T18:15:57;4.30;99.90
49042;DHT22;34859;51.608;11.462;2023-03-14T18:18:23;4.30;99.90
49042;DHT22;34859;51.608;11.462;2023-03-14T18:20:50;4.30;99.90
49042;DHT22;34859;51.608;11.462;2023-03-14T18:23:19;4.20;99.90
49042;DHT22;34859;51.608;11.462;2023-03-14T18:25:47;4.20;99.90
49042;DHT22;34859;51.608;11.462;2023-03-14T18:28:14;4.20;99.90
49042;DHT22;34859;51.608;11.462;2023-03-14T18:30:40;4.20;99.90
49042;DHT22;34859;51.608;11.462;2023-03-14T18:33:07;4.10;99.90
49042;DHT22;34859;51.608;11.462;2023-03-14T18:35:35;4.10;99.90
49042;DHT22;34859;51.608;11.462;2023-03-14T18:38:04;4.10;99.90
49042;DHT22;34859;51.608;11.462;2023-03-14T18:40:30;4.00;99.90
49042;DHT22;34859;51.608;11.462;2023-03-14T18:42:58;4.10;99.90
49042;DHT22;34859;51.608;11.462;2023-03-14T18:45:24;4.10;99.90
49042;DHT22;34859;51.608;11.462;2023-03-14T18:47:52;4.00;99.90
49042;DHT22;34859;51.608;11.462;2023-03-14T18:50:19;4.00;99.90
49042;DHT22;34859;51.608;11.462;2023-03-14T18:52:49;4.00;99.90
49042;DHT22;34859;51.608;11.462;2023-03-14T18:55:16;4.00;99.90
49042;DHT22;34859;51.608;11.462;2023-03-14T18:57:43;4.10;99.90
49042;DHT22;34859;51.608;11.462;2023-03-14T19:00:10;4.00;99.90
49042;DHT22;34859;51.608;11.462;2023-03-14T19:02:38;4.10;99.90
49042;DHT22;34859;51.608;11.462;2023-03-14T19:05:05;4.00;99.90
49042;DHT22;34859;51.608;11.462;2023-03-14T19:07:33;4.00;99.90
49042;DHT22;34859;51.608;11.462;2023-03-14T19:10:00;4.00;99.90
49042;DHT22;34859;51.608;11.462;2023-03-14T19:12:27;4.00;99.90
49042;DHT22;34859;51.608;11.462;2023-03-14T19:14:54;3.90;99.90
49042;DHT22;34859;51.608;11.462;2023-03-14T19:17:21;3.90;99.90
49042;DHT22;34859;51.608;11.462;2023-03-14T19:19:47;3.90;99.90
49042;DHT22;34859;51.608;11.462;2023-03-14T19:22:16;3.90;99.90
49042;DHT22;34859;51.608;11.462;2023-03-14T19:24:43;3.90;99.90
49042;DHT22;34859;51.608;11.462;2023-03-14T19:27:10;3.90;99.90
49042;DHT22;34859;51.608;11.462;2023-03-14T19:29:36;3.90;99.90
49042;DHT22;34859;51.608;11.462;2023-03-14T19:32:08;3.80;99.90
49042;DHT22;34859;51.608;11.462;2023-03-14T19:34:34;3.80;99.90
49042;DHT22;34859;51.608;11.462;2023-03-14T19:37:01;3.70;99.90
49042;DHT22;34859;51.608;11.462;2023-03-14T19:39:27;3.70;99.90
49042;DHT22;34859;51.608;11.462;2023-03-14T19:41:54;3.70;99.90
49042;DHT22;34859;51.608;11.462;2023-03-14T19:44:24;3.70;99.90
49042;DHT22;34859;51.608;11.462;2023-03-14T19:46:51;3.60;99.90
49042;DHT22;34859;51.608;11.462;2023-03-14T19:49:17;3.50;99.90
49042;DHT22;34859;51.608;11.462;2023-03-14T19:51:44;3.40;99.90
49042;DHT22;34859;51.608;11.462;2023-03-14T19:54:10;3.40;99.90
49042;DHT22;34859;51.608;11.462;2023-03-14T19:56:37;3.40;99.90
49042;DHT22;34859;51.608;11.462;2023-03-14T19:59:03;3.40;99.90
49042;DHT22;34859;51.608;11.462;2023-03-14T20:01:30;3.40;99.90
49042;DHT22;34859;51.608;11.462;2023-03-14T20:03:57;3.40;99.90
49042;DHT22;34859;51.608;11.462;2023-03-14T20:06:23;3.30;99.90
49042;DHT22;34859;51.608;11.462;2023-03-14T20:08:50;3.20;99.90
49042;DHT22;34859;51.608;11.462;2023-03-14T20:11:17;3.00;99.90
49042;DHT22;34859;51.608;11.462;2023-03-14T20:13:43;3.00;99.90
49042;DHT22;34859;51.608;11.462;2023-03-14T20:16:10;3.00;99.90
49042;DHT22;34859;51.608;11.462;2023-03-14T20:18:56;3.00;99.90
49042;DHT22;34859;51.608;11.462;2023-03-14T20:21:43;3.10;99.90
49042;DHT22;34859;51.608;11.462;2023-03-14T20:24:29;3.20;99.90
49042;DHT22;34859;51.608;11.462;2023-03-14T20:27:17;3.20;99.90
49042;DHT22;34859;51.608;11.462;2023-03-14T20:30:04;3.10;99.90
49042;DHT22;34859;51.608;11.462;2023-03-14T20:32:35;3.10;99.90
49042;DHT22;34859;51.608;11.462;2023-03-14T20:35:02;2.90;99.90
49042;DHT22;34859;51.608;11.462;2023-03-14T20:37:28;2.80;99.90
49042;DHT22;34859;51.608;11.462;2023-03-14T20:39:55;2.60;99.90
49042;DHT22;34859;51.608;11.462;2023-03-14T20:42:22;2.60;99.90
49042;DHT22;34859;51.608;11.462;2023-03-14T20:44:48;2.40;99.90
49042;DHT22;34859;51.608;11.462;2023-03-14T20:47:15;2.20;99.90
49042;DHT22;34859;51.608;11.462;2023-03-14T20:50:00;2.10;99.90
49042;DHT22;34859;51.608;11.462;2023-03-14T20:52:44;2.00;99.90
49042;DHT22;34859;51.608;11.462;2023-03-14T20:55:11;1.90;99.90
49042;DHT22;34859;51.608;11.462;2023-03-14T20:57:38;1.80;99.90
49042;DHT22;34859;51.608;11.462;2023-03-14T21:00:05;1.70;99.90
49042;DHT22;34859;51.608;11.462;2023-03-14T21:02:34;1.70;99.90
49042;DHT22;34859;51.608;11.462;2023-03-14T21:05:01;1.70;99.90
49042;DHT22;34859;51.608;11.462;2023-03-14T21:07:30;1.70;99.90
49042;DHT22;34859;51.608;11.462;2023-03-14T21:09:59;1.70;99.90
49042;DHT22;34859;51.608;11.462;2023-03-14T21:12:27;1.90;99.90
49042;DHT22;34859;51.608;11.462;2023-03-14T21:14:54;1.90;99.90
49042;DHT22;34859;51.608;11.462;2023-03-14T21:17:20;1.70;99.90
49042;DHT22;34859;51.608;11.462;2023-03-14T21:20:00;1.80;99.90
49042;DHT22;34859;51.608;11.462;2023-03-14T21:22:27;1.80;99.90
49042;DHT22;34859;51.608;11.462;2023-03-14T21:24:55;1.90;99.90
49042;DHT22;34859;51.608;11.462;2023-03-14T21:27:21;1.90;99.90
49042;DHT22;34859;51.608;11.462;2023-03-14T21:29:49;1.80;99.90
49042;DHT22;34859;51.608;11.462;2023-03-14T21:32:15;1.80;99.90
49042;DHT22;34859;51.608;11.462;2023-03-14T21:34:42;1.80;99.90
49042;DHT22;34859;51.608;11.462;2023-03-14T21:37:08;1.90;99.90
49042;DHT22;34859;51.608;11.462;2023-03-14T21:39:36;2.10;99.90
49042;DHT22;34859;51.608;11.462;2023-03-14T21:42:03;2.10;99.90
49042;DHT22;34859;51.608;11.462;2023-03-14T21:44:30;2.30;99.90
49042;DHT22;34859;51.608;11.462;2023-03-14T21:47:05;2.40;99.90
49042;DHT22;34859;51.608;11.462;2023-03-14T21:49:32;2.40;99.90
49042;DHT22;34859;51.608;11.462;2023-03-14T21:52:05;2.50;99.90
49042;DHT22;34859;51.608;11.462;2023-03-14T21:54:31;2.60;99.90
49042;DHT22;34859;51.608;11.462;2023-03-14T21:57:01;2.60;99.90
49042;DHT22;34859;51.608;11.462;2023-03-14T21:59:28;2.60;99.90
49042;DHT22;34859;51.608;11.462;2023-03-14T22:01:54;2.50;99.90
49042;DHT22;34859;51.608;11.462;2023-03-14T22:04:21;2.30;99.90
49042;DHT22;34859;51.608;11.462;2023-03-14T22:06:51;2.30;99.90
49042;DHT22;34859;51.608;11.462;2023-03-14T22:09:21;2.30;99.90
49042;DHT22;34859;51.608;11.462;2023-03-14T22:11:47;2.30;99.90
49042;DHT22;34859;51.608;11.462;2023-03-14T22:14:14;2.20;99.90
49042;DHT22;34859;51.608;11.462;2023-03-14T22:16:41;2.20;99.90
49042;DHT22;34859;51.608;11.462;2023-03-14T22:19:07;2.00;99.90
49042;DHT22;34859;51.608;11.462;2023-03-14T22:21:34;1.90;99.90
49042;DHT22;34859;51.608;11.462;2023-03-14T22:24:00;1.70;99.90
49042;DHT22;34859;51.608;11.462;2023-03-14T22:26:31;1.70;99.90
49042;DHT22;34859;51.608;11.462;2023-03-14T22:28:57;1.60;99.90
49042;DHT22;34859;51.608;11.462;2023-03-14T22:31:24;1.40;99.90
49042;DHT22;34859;51.608;11.462;2023-03-14T22:33:50;1.40;99.90
49042;DHT22;34859;51.608;11.462;2023-03-14T22:36:17;1.30;99.90
49042;DHT22;34859;51.608;11.462;2023-03-14T22:38:43;1.20;99.90
49042;DHT22;34859;51.608;11.462;2023-03-14T22:41:10;1.20;99.90
49042;DHT22;34859;51.608;11.462;2023-03-14T22:43:38;1.10;99.90
49042;DHT22;34859;51.608;11.462;2023-03-14T22:46:05;1.00;99.90
49042;DHT22;34859;51.608;11.462;2023-03-14T22:48:32;1.00;99.90
49042;DHT22;34859;51.608;11.462;2023-03-14T22:50:59;1.00;99.90
49042;DHT22;34859;51.608;11.462;2023-03-14T22:53:25;1.00;99.90
49042;DHT22;34859;51.608;11.462;2023-03-14T22:55:55;0.90;99.90
49042;DHT22;34859;51.608;11.462;2023-03-14T22:58:22;0.90;99.90
49042;DHT22;34859;51.608;11.462;2023-03-14T23:00:48;0.90;99.90
49042;DHT22;34859;51.608;11.462;2023-03-14T23:03:15;0.80;99.90
49042;DHT22;34859;51.608;11.462;2023-03-14T23:05:41;0.70;99.90
49042;DHT22;34859;51.608;11.462;2023-03-14T23:08:08;0.70;99.90
49042;DHT22;34859;51.608;11.462;2023-03-14T23:10:34;0.70;99.90
49042;DHT22;34859;51.608;11.462;2023-03-14T23:13:01;0.70;99.90
49042;DHT22;34859;51.608;11.462;2023-03-14T23:15:30;0.70;99.90
49042;DHT22;34859;51.608;11.462;2023-03-14T23:17:57;0.70;99.90
49042;DHT22;34859;51.608;11.462;2023-03-14T23:20:23;0.70;99.90
49042;DHT22;34859;51.608;11.462;2023-03-14T23:22:50;0.70;99.90
49042;DHT22;34859;51.608;11.462;2023-03-14T23:25:17;0.60;99.90
49042;DHT22;34859;51.608;11.462;2023-03-14T23:27:43;0.70;99.90
49042;DHT22;34859;51.608;11.462;2023-03-14T23:30:15;0.70;99.90
49042;DHT22;34859;51.608;11.462;2023-03-14T23:32:41;0.70;99.90
49042;DHT22;34859;51.608;11.462;2023-03-14T23:35:12;0.70;99.90
49042;DHT22;34859;51.608;11.462;2023-03-14T23:37:38;0.70;99.90
49042;DHT22;34859;51.608;11.462;2023-03-14T23:40:05;0.70;99.90
49042;DHT22;34859;51.608;11.462;2023-03-14T23:42:33;0.70;99.90
49042;DHT22;34859;51.608;11.462;2023-03-14T23:45:00;0.70;99.90
49042;DHT22;34859;51.608;11.462;2023-03-14T23:47:30;0.60;99.90
49042;DHT22;34859;51.608;11.462;2023-03-14T23:49:57;0.60;99.90
49042;DHT22;34859;51.608;11.462;2023-03-14T23:52:23;0.60;99.90
49042;DHT22;34859;51.608;11.462;2023-03-14T23:54:50;0.50;99.90
49042;DHT22;34859;51.608;11.462;2023-03-14T23:57:17;0.50;99.90
49042;DHT22;34859;51.608;11.462;2023-03-14T23:59:43;0.60;99.90
